sensor_id;sensor_type;location;lat;lon;timestamp;P1;durP1;ratioP1;P2;durP2;ratioP2
17844;SDS011;9047;53.486;10.218;2023-09-30T00:01:12;17.42;;;4.57;;
17844;SDS011;9047;53.486;10.218;2023-09-30T00:03:43;21.70;;;4.85;;
17844;SDS011;9047;53.486;10.218;2023-09-30T00:06:11;22.13;;;4.70;;
17844;SDS011;9047;53.486;10.218;2023-09-30T00:08:37;17.13;;;4.60;;
17844;SDS011;9047;53.486;10.218;2023-09-30T00:11:07;18.10;;;4.80;;
17844;SDS011;9047;53.486;10.218;2023-09-30T00:13:38;17.52;;;4.65;;
17844;SDS011;9047;53.486;10.218;2023-09-30T00:16:06;17.30;;;4.65;;
17844;SDS011;9047;53.486;10.218;2023-09-30T00:18:35;17.67;;;5.10;;
17844;SDS011;9047;53.486;10.218;2023-09-30T00:21:02;18.48;;;4.40;;
17844;SDS011;9047;53.486;10.218;2023-09-30T00:23:30;14.30;;;4.55;;
17844;SDS011;9047;53.486;10.218;2023-09-30T00:25:57;18.60;;;5.25;;
17844;SDS011;9047;53.486;10.218;2023-09-30T00:28:25;21.50;;;5.13;;
17844;SDS011;9047;53.486;10.218;2023-09-30T00:30:54;18.63;;;4.80;;
17844;SDS011;9047;53.486;10.218;2023-09-30T00:33:23;17.77;;;5.53;;
17844;SDS011;9047;53.486;10.218;2023-09-30T00:35:50;16.17;;;4.63;;
17844;SDS011;9047;53.486;10.218;2023-09-30T00:38:18;20.02;;;5.43;;
17844;SDS011;9047;53.486;10.218;2023-09-30T00:40:48;19.13;;;4.78;;
17844;SDS011;9047;53.486;10.218;2023-09-30T00:43:20;17.13;;;4.95;;
17844;SDS011;9047;53.486;10.218;2023-09-30T00:45:48;18.90;;;4.70;;
17844;SDS011;9047;53.486;10.218;2023-09-30T00:48:22;15.98;;;4.80;;
17844;SDS011;9047;53.486;10.218;2023-09-30T00:50:50;20.90;;;4.78;;
17844;SDS011;9047;53.486;10.218;2023-09-30T00:53:17;15.98;;;4.47;;
17844;SDS011;9047;53.486;10.218;2023-09-30T00:55:44;20.08;;;4.57;;
17844;SDS011;9047;53.486;10.218;2023-09-30T00:58:12;23.42;;;4.97;;
17844;SDS011;9047;53.486;10.218;2023-09-30T01:00:42;16.88;;;4.47;;
17844;SDS011;9047;53.486;10.218;2023-09-30T01:03:09;17.30;;;4.63;;
17844;SDS011;9047;53.486;10.218;2023-09-30T01:05:39;23.02;;;4.63;;
17844;SDS011;9047;53.486;10.218;2023-09-30T01:08:07;21.70;;;4.70;;
17844;SDS011;9047;53.486;10.218;2023-09-30T01:10:35;20.83;;;4.22;;
17844;SDS011;9047;53.486;10.218;2023-09-30T01:13:03;21.67;;;4.35;;
17844;SDS011;9047;53.486;10.218;2023-09-30T01:15:32;21.50;;;4.50;;
17844;SDS011;9047;53.486;10.218;2023-09-30T01:17:59;25.70;;;5.00;;
17844;SDS011;9047;53.486;10.218;2023-09-30T01:20:27;14.82;;;4.13;;
17844;SDS011;9047;53.486;10.218;2023-09-30T01:22:57;16.90;;;4.55;;
17844;SDS011;9047;53.486;10.218;2023-09-30T01:25:28;15.68;;;3.97;;
17844;SDS011;9047;53.486;10.218;2023-09-30T01:27:55;19.33;;;4.28;;
17844;SDS011;9047;53.486;10.218;2023-09-30T01:30:31;21.05;;;4.43;;
17844;SDS011;9047;53.486;10.218;2023-09-30T01:32:58;14.95;;;3.97;;
17844;SDS011;9047;53.486;10.218;2023-09-30T01:35:26;21.52;;;4.47;;
17844;SDS011;9047;53.486;10.218;2023-09-30T01:37:53;16.30;;;4.38;;
17844;SDS011;9047;53.486;10.218;2023-09-30T01:40:22;20.65;;;4.20;;
17844;SDS011;9047;53.486;10.218;2023-09-30T01:42:50;17.95;;;3.75;;
17844;SDS011;9047;53.486;10.218;2023-09-30T01:45:18;20.10;;;4.13;;
17844;SDS011;9047;53.486;10.218;2023-09-30T01:47:45;18.17;;;4.45;;
17844;SDS011;9047;53.486;10.218;2023-09-30T01:50:19;18.02;;;4.38;;
17844;SDS011;9047;53.486;10.218;2023-09-30T01:52:49;18.00;;;4.32;;
17844;SDS011;9047;53.486;10.218;2023-09-30T01:55:18;17.20;;;4.88;;
17844;SDS011;9047;53.486;10.218;2023-09-30T01:57:44;14.07;;;4.15;;
17844;SDS011;9047;53.486;10.218;2023-09-30T02:00:14;18.08;;;4.60;;
17844;SDS011;9047;53.486;10.218;2023-09-30T02:02:44;18.98;;;4.85;;
17844;SDS011;9047;53.486;10.218;2023-09-30T02:05:11;18.35;;;4.78;;
17844;SDS011;9047;53.486;10.218;2023-09-30T02:07:38;19.05;;;4.53;;
17844;SDS011;9047;53.486;10.218;2023-09-30T02:10:07;14.90;;;4.45;;
17844;SDS011;9047;53.486;10.218;2023-09-30T02:12:40;19.58;;;5.57;;
17844;SDS011;9047;53.486;10.218;2023-09-30T02:15:08;17.10;;;4.90;;
17844;SDS011;9047;53.486;10.218;2023-09-30T02:17:38;17.25;;;4.97;;
17844;SDS011;9047;53.486;10.218;2023-09-30T02:20:05;15.85;;;4.80;;
17844;SDS011;9047;53.486;10.218;2023-09-30T02:22:38;18.05;;;4.88;;
17844;SDS011;9047;53.486;10.218;2023-09-30T02:25:05;21.75;;;5.15;;
17844;SDS011;9047;53.486;10.218;2023-09-30T02:27:37;17.08;;;5.18;;
17844;SDS011;9047;53.486;10.218;2023-09-30T02:30:08;16.23;;;4.88;;
17844;SDS011;9047;53.486;10.218;2023-09-30T02:32:41;15.00;;;4.63;;
17844;SDS011;9047;53.486;10.218;2023-09-30T02:35:11;14.55;;;4.47;;
17844;SDS011;9047;53.486;10.218;2023-09-30T02:37:40;18.75;;;5.15;;
17844;SDS011;9047;53.486;10.218;2023-09-30T02:40:07;14.95;;;5.10;;
17844;SDS011;9047;53.486;10.218;2023-09-30T02:42:41;15.88;;;4.60;;
17844;SDS011;9047;53.486;10.218;2023-09-30T02:45:11;23.35;;;5.40;;
17844;SDS011;9047;53.486;10.218;2023-09-30T02:47:42;19.08;;;5.15;;
17844;SDS011;9047;53.486;10.218;2023-09-30T02:50:10;18.40;;;5.35;;
17844;SDS011;9047;53.486;10.218;2023-09-30T02:52:37;16.75;;;4.93;;
17844;SDS011;9047;53.486;10.218;2023-09-30T02:55:07;17.25;;;4.40;;
17844;SDS011;9047;53.486;10.218;2023-09-30T02:57:34;20.38;;;5.22;;
17844;SDS011;9047;53.486;10.218;2023-09-30T03:00:08;14.70;;;5.03;;
17844;SDS011;9047;53.486;10.218;2023-09-30T03:02:48;18.75;;;5.07;;
17844;SDS011;9047;53.486;10.218;2023-09-30T03:05:16;19.52;;;5.32;;
17844;SDS011;9047;53.486;10.218;2023-09-30T03:07:43;21.92;;;5.75;;
17844;SDS011;9047;53.486;10.218;2023-09-30T03:10:13;21.80;;;5.28;;
17844;SDS011;9047;53.486;10.218;2023-09-30T03:12:45;21.85;;;5.80;;
17844;SDS011;9047;53.486;10.218;2023-09-30T03:15:14;19.63;;;5.65;;
17844;SDS011;9047;53.486;10.218;2023-09-30T03:17:44;19.70;;;5.93;;
17844;SDS011;9047;53.486;10.218;2023-09-30T03:20:14;24.70;;;6.07;;
17844;SDS011;9047;53.486;10.218;2023-09-30T03:22:45;22.85;;;6.47;;
17844;SDS011;9047;53.486;10.218;2023-09-30T03:25:12;18.05;;;5.95;;
17844;SDS011;9047;53.486;10.218;2023-09-30T03:27:41;23.52;;;5.97;;
17844;SDS011;9047;53.486;10.218;2023-09-30T03:30:10;23.17;;;6.43;;
17844;SDS011;9047;53.486;10.218;2023-09-30T03:32:43;24.17;;;6.93;;
17844;SDS011;9047;53.486;10.218;2023-09-30T03:35:11;22.17;;;6.32;;
17844;SDS011;9047;53.486;10.218;2023-09-30T03:37:42;21.40;;;6.53;;
17844;SDS011;9047;53.486;10.218;2023-09-30T03:40:11;19.38;;;6.55;;
17844;SDS011;9047;53.486;10.218;2023-09-30T03:42:43;22.13;;;6.80;;
17844;SDS011;9047;53.486;10.218;2023-09-30T03:45:14;16.30;;;6.47;;
17844;SDS011;9047;53.486;10.218;2023-09-30T03:47:41;24.20;;;6.93;;
17844;SDS011;9047;53.486;10.218;2023-09-30T03:50:10;22.95;;;7.13;;
17844;SDS011;9047;53.486;10.218;2023-09-30T03:52:40;23.50;;;6.93;;
17844;SDS011;9047;53.486;10.218;2023-09-30T03:55:13;20.98;;;6.93;;
17844;SDS011;9047;53.486;10.218;2023-09-30T03:57:40;19.80;;;7.18;;
17844;SDS011;9047;53.486;10.218;2023-09-30T04:00:08;30.77;;;7.95;;
17844;SDS011;9047;53.486;10.218;2023-09-30T04:02:51;23.33;;;7.25;;
17844;SDS011;9047;53.486;10.218;2023-09-30T04:05:23;29.65;;;7.80;;
17844;SDS011;9047;53.486;10.218;2023-09-30T04:07:53;21.05;;;6.85;;
17844;SDS011;9047;53.486;10.218;2023-09-30T04:10:28;20.75;;;7.20;;
17844;SDS011;9047;53.486;10.218;2023-09-30T04:12:55;26.98;;;7.43;;
17844;SDS011;9047;53.486;10.218;2023-09-30T04:15:23;26.60;;;8.30;;
17844;SDS011;9047;53.486;10.218;2023-09-30T04:17:56;24.95;;;7.60;;
17844;SDS011;9047;53.486;10.218;2023-09-30T04:20:23;26.48;;;7.20;;
17844;SDS011;9047;53.486;10.218;2023-09-30T04:22:52;28.77;;;8.35;;
17844;SDS011;9047;53.486;10.218;2023-09-30T04:25:22;27.80;;;7.07;;
17844;SDS011;9047;53.486;10.218;2023-09-30T04:27:52;26.80;;;7.63;;
17844;SDS011;9047;53.486;10.218;2023-09-30T04:30:22;23.15;;;7.40;;
17844;SDS011;9047;53.486;10.218;2023-09-30T04:32:49;20.70;;;7.03;;
17844;SDS011;9047;53.486;10.218;2023-09-30T04:35:18;21.88;;;7.68;;
17844;SDS011;9047;53.486;10.218;2023-09-30T04:37:45;26.73;;;7.10;;
17844;SDS011;9047;53.486;10.218;2023-09-30T04:40:11;21.85;;;6.97;;
17844;SDS011;9047;53.486;10.218;2023-09-30T04:42:45;26.73;;;7.97;;
17844;SDS011;9047;53.486;10.218;2023-09-30T04:45:12;23.13;;;7.53;;
17844;SDS011;9047;53.486;10.218;2023-09-30T04:47:41;29.85;;;8.02;;
17844;SDS011;9047;53.486;10.218;2023-09-30T04:50:09;26.85;;;7.35;;
17844;SDS011;9047;53.486;10.218;2023-09-30T04:52:42;28.50;;;7.25;;
17844;SDS011;9047;53.486;10.218;2023-09-30T04:55:12;19.58;;;7.20;;
17844;SDS011;9047;53.486;10.218;2023-09-30T04:57:41;33.92;;;8.38;;
17844;SDS011;9047;53.486;10.218;2023-09-30T05:00:10;20.23;;;7.38;;
17844;SDS011;9047;53.486;10.218;2023-09-30T05:02:38;27.67;;;7.40;;
17844;SDS011;9047;53.486;10.218;2023-09-30T05:05:06;23.08;;;7.50;;
17844;SDS011;9047;53.486;10.218;2023-09-30T05:07:34;21.83;;;7.70;;
17844;SDS011;9047;53.486;10.218;2023-09-30T05:10:05;18.77;;;7.28;;
17844;SDS011;9047;53.486;10.218;2023-09-30T05:12:36;26.75;;;7.72;;
17844;SDS011;9047;53.486;10.218;2023-09-30T05:15:10;20.13;;;6.70;;
17844;SDS011;9047;53.486;10.218;2023-09-30T05:17:38;25.08;;;7.93;;
17844;SDS011;9047;53.486;10.218;2023-09-30T05:20:05;23.65;;;7.20;;
17844;SDS011;9047;53.486;10.218;2023-09-30T05:22:33;23.42;;;7.18;;
17844;SDS011;9047;53.486;10.218;2023-09-30T05:25:01;23.83;;;6.72;;
17844;SDS011;9047;53.486;10.218;2023-09-30T05:27:32;26.67;;;7.32;;
17844;SDS011;9047;53.486;10.218;2023-09-30T05:29:59;22.45;;;7.13;;
17844;SDS011;9047;53.486;10.218;2023-09-30T05:32:25;21.17;;;6.45;;
17844;SDS011;9047;53.486;10.218;2023-09-30T05:34:54;21.60;;;7.50;;
17844;SDS011;9047;53.486;10.218;2023-09-30T05:37:21;26.05;;;7.30;;
17844;SDS011;9047;53.486;10.218;2023-09-30T05:39:49;21.13;;;6.88;;
17844;SDS011;9047;53.486;10.218;2023-09-30T05:42:19;20.92;;;6.78;;
17844;SDS011;9047;53.486;10.218;2023-09-30T05:44:47;24.08;;;6.78;;
17844;SDS011;9047;53.486;10.218;2023-09-30T05:47:16;20.95;;;7.18;;
17844;SDS011;9047;53.486;10.218;2023-09-30T05:49:47;22.90;;;7.05;;
17844;SDS011;9047;53.486;10.218;2023-09-30T05:52:17;20.98;;;6.57;;
17844;SDS011;9047;53.486;10.218;2023-09-30T05:54:45;22.13;;;6.70;;
17844;SDS011;9047;53.486;10.218;2023-09-30T05:57:14;21.40;;;6.82;;
17844;SDS011;9047;53.486;10.218;2023-09-30T05:59:43;20.05;;;7.15;;
17844;SDS011;9047;53.486;10.218;2023-09-30T06:02:13;19.85;;;7.00;;
17844;SDS011;9047;53.486;10.218;2023-09-30T06:04:55;22.88;;;6.97;;
17844;SDS011;9047;53.486;10.218;2023-09-30T06:07:27;24.33;;;6.95;;
17844;SDS011;9047;53.486;10.218;2023-09-30T06:09:59;18.25;;;6.75;;
17844;SDS011;9047;53.486;10.218;2023-09-30T06:12:28;19.33;;;6.28;;
17844;SDS011;9047;53.486;10.218;2023-09-30T06:14:58;19.88;;;6.88;;
17844;SDS011;9047;53.486;10.218;2023-09-30T06:17:27;21.70;;;6.47;;
17844;SDS011;9047;53.486;10.218;2023-09-30T06:19:55;22.17;;;6.80;;
17844;SDS011;9047;53.486;10.218;2023-09-30T06:22:32;21.58;;;6.30;;
17844;SDS011;9047;53.486;10.218;2023-09-30T06:24:59;19.60;;;6.60;;
17844;SDS011;9047;53.486;10.218;2023-09-30T06:27:27;24.63;;;6.55;;
17844;SDS011;9047;53.486;10.218;2023-09-30T06:29:55;22.88;;;6.28;;
17844;SDS011;9047;53.486;10.218;2023-09-30T06:32:33;21.23;;;6.30;;
17844;SDS011;9047;53.486;10.218;2023-09-30T06:35:01;23.13;;;6.47;;
17844;SDS011;9047;53.486;10.218;2023-09-30T06:37:29;23.48;;;6.25;;
17844;SDS011;9047;53.486;10.218;2023-09-30T06:39:57;22.60;;;6.45;;
17844;SDS011;9047;53.486;10.218;2023-09-30T06:42:27;22.40;;;6.70;;
17844;SDS011;9047;53.486;10.218;2023-09-30T06:44:56;18.75;;;5.68;;
17844;SDS011;9047;53.486;10.218;2023-09-30T06:47:24;15.50;;;5.97;;
17844;SDS011;9047;53.486;10.218;2023-09-30T06:49:56;17.02;;;5.85;;
17844;SDS011;9047;53.486;10.218;2023-09-30T06:52:23;14.73;;;4.90;;
17844;SDS011;9047;53.486;10.218;2023-09-30T06:54:52;14.80;;;5.35;;
17844;SDS011;9047;53.486;10.218;2023-09-30T06:57:25;16.23;;;5.00;;
17844;SDS011;9047;53.486;10.218;2023-09-30T06:59:55;15.73;;;4.95;;
17844;SDS011;9047;53.486;10.218;2023-09-30T07:02:22;17.40;;;4.63;;
17844;SDS011;9047;53.486;10.218;2023-09-30T07:04:53;16.73;;;4.32;;
17844;SDS011;9047;53.486;10.218;2023-09-30T07:07:23;13.63;;;4.30;;
17844;SDS011;9047;53.486;10.218;2023-09-30T07:09:55;12.63;;;3.85;;
17844;SDS011;9047;53.486;10.218;2023-09-30T07:12:24;14.20;;;4.13;;
17844;SDS011;9047;53.486;10.218;2023-09-30T07:14:51;17.17;;;4.18;;
17844;SDS011;9047;53.486;10.218;2023-09-30T07:17:20;14.95;;;3.85;;
17844;SDS011;9047;53.486;10.218;2023-09-30T07:19:59;15.00;;;4.40;;
17844;SDS011;9047;53.486;10.218;2023-09-30T07:22:52;21.90;;;4.43;;
17844;SDS011;9047;53.486;10.218;2023-09-30T07:25:34;16.40;;;4.68;;
17844;SDS011;9047;53.486;10.218;2023-09-30T07:28:03;17.17;;;4.05;;
17844;SDS011;9047;53.486;10.218;2023-09-30T07:30:36;15.30;;;4.30;;
17844;SDS011;9047;53.486;10.218;2023-09-30T07:33:04;15.02;;;5.20;;
17844;SDS011;9047;53.486;10.218;2023-09-30T07:35:32;14.25;;;4.07;;
17844;SDS011;9047;53.486;10.218;2023-09-30T07:38:03;14.88;;;4.25;;
17844;SDS011;9047;53.486;10.218;2023-09-30T07:40:44;13.82;;;3.55;;
17844;SDS011;9047;53.486;10.218;2023-09-30T07:43:17;11.93;;;4.13;;
17844;SDS011;9047;53.486;10.218;2023-09-30T07:45:51;16.02;;;4.32;;
17844;SDS011;9047;53.486;10.218;2023-09-30T07:48:22;13.65;;;4.13;;
17844;SDS011;9047;53.486;10.218;2023-09-30T07:51:01;13.63;;;3.92;;
17844;SDS011;9047;53.486;10.218;2023-09-30T07:53:31;10.30;;;3.58;;
17844;SDS011;9047;53.486;10.218;2023-09-30T07:55:58;15.82;;;3.90;;
17844;SDS011;9047;53.486;10.218;2023-09-30T07:58:25;12.63;;;3.97;;
17844;SDS011;9047;53.486;10.218;2023-09-30T08:00:52;18.63;;;4.38;;
17844;SDS011;9047;53.486;10.218;2023-09-30T08:03:20;12.40;;;3.92;;
17844;SDS011;9047;53.486;10.218;2023-09-30T08:05:49;12.70;;;4.00;;
17844;SDS011;9047;53.486;10.218;2023-09-30T08:08:18;17.45;;;3.95;;
17844;SDS011;9047;53.486;10.218;2023-09-30T08:10:46;11.82;;;3.63;;
17844;SDS011;9047;53.486;10.218;2023-09-30T08:13:20;13.63;;;3.88;;
17844;SDS011;9047;53.486;10.218;2023-09-30T08:15:49;12.43;;;4.05;;
17844;SDS011;9047;53.486;10.218;2023-09-30T08:18:18;15.27;;;3.85;;
17844;SDS011;9047;53.486;10.218;2023-09-30T08:20:47;12.00;;;3.17;;
17844;SDS011;9047;53.486;10.218;2023-09-30T08:23:15;12.75;;;3.28;;
17844;SDS011;9047;53.486;10.218;2023-09-30T08:25:42;12.38;;;3.40;;
17844;SDS011;9047;53.486;10.218;2023-09-30T08:28:14;13.43;;;3.47;;
17844;SDS011;9047;53.486;10.218;2023-09-30T08:30:43;17.00;;;4.03;;
17844;SDS011;9047;53.486;10.218;2023-09-30T08:33:11;14.32;;;3.28;;
17844;SDS011;9047;53.486;10.218;2023-09-30T08:35:38;11.75;;;3.20;;
17844;SDS011;9047;53.486;10.218;2023-09-30T08:38:05;12.10;;;3.22;;
17844;SDS011;9047;53.486;10.218;2023-09-30T08:40:47;11.02;;;3.22;;
17844;SDS011;9047;53.486;10.218;2023-09-30T08:43:22;10.50;;;3.17;;
17844;SDS011;9047;53.486;10.218;2023-09-30T08:45:52;14.13;;;3.08;;
17844;SDS011;9047;53.486;10.218;2023-09-30T08:48:21;16.60;;;3.78;;
17844;SDS011;9047;53.486;10.218;2023-09-30T08:50:52;16.00;;;3.58;;
17844;SDS011;9047;53.486;10.218;2023-09-30T08:53:20;12.82;;;3.25;;
17844;SDS011;9047;53.486;10.218;2023-09-30T08:55:52;9.15;;;2.55;;
17844;SDS011;9047;53.486;10.218;2023-09-30T08:58:23;9.98;;;2.55;;
17844;SDS011;9047;53.486;10.218;2023-09-30T09:00:54;11.88;;;2.92;;
17844;SDS011;9047;53.486;10.218;2023-09-30T09:03:21;13.15;;;2.60;;
17844;SDS011;9047;53.486;10.218;2023-09-30T09:05:54;11.02;;;2.72;;
17844;SDS011;9047;53.486;10.218;2023-09-30T09:08:31;11.95;;;2.70;;
17844;SDS011;9047;53.486;10.218;2023-09-30T09:10:59;12.60;;;2.85;;
17844;SDS011;9047;53.486;10.218;2023-09-30T09:13:45;16.58;;;2.90;;
17844;SDS011;9047;53.486;10.218;2023-09-30T09:16:18;9.38;;;2.35;;
17844;SDS011;9047;53.486;10.218;2023-09-30T09:19:14;13.82;;;2.67;;
17844;SDS011;9047;53.486;10.218;2023-09-30T09:21:56;9.88;;;2.45;;
17844;SDS011;9047;53.486;10.218;2023-09-30T09:24:28;11.82;;;2.70;;
17844;SDS011;9047;53.486;10.218;2023-09-30T09:27:05;12.98;;;2.70;;
17844;SDS011;9047;53.486;10.218;2023-09-30T09:29:43;10.23;;;2.28;;
17844;SDS011;9047;53.486;10.218;2023-09-30T09:32:11;11.32;;;2.42;;
17844;SDS011;9047;53.486;10.218;2023-09-30T09:34:43;11.70;;;2.58;;
17844;SDS011;9047;53.486;10.218;2023-09-30T09:37:26;9.93;;;2.28;;
17844;SDS011;9047;53.486;10.218;2023-09-30T09:40:03;13.40;;;2.47;;
17844;SDS011;9047;53.486;10.218;2023-09-30T09:42:33;16.60;;;2.65;;
17844;SDS011;9047;53.486;10.218;2023-09-30T09:45:13;13.32;;;2.55;;
17844;SDS011;9047;53.486;10.218;2023-09-30T09:47:41;12.40;;;2.42;;
17844;SDS011;9047;53.486;10.218;2023-09-30T09:50:11;9.52;;;2.67;;
17844;SDS011;9047;53.486;10.218;2023-09-30T09:52:40;13.35;;;2.53;;
17844;SDS011;9047;53.486;10.218;2023-09-30T09:55:08;12.23;;;2.40;;
17844;SDS011;9047;53.486;10.218;2023-09-30T09:57:40;11.15;;;2.50;;
17844;SDS011;9047;53.486;10.218;2023-09-30T10:00:22;10.90;;;2.42;;
17844;SDS011;9047;53.486;10.218;2023-09-30T10:03:01;8.50;;;1.88;;
17844;SDS011;9047;53.486;10.218;2023-09-30T10:05:31;14.25;;;2.38;;
17844;SDS011;9047;53.486;10.218;2023-09-30T10:08:01;11.25;;;2.00;;
17844;SDS011;9047;53.486;10.218;2023-09-30T10:10:34;11.15;;;2.40;;
17844;SDS011;9047;53.486;10.218;2023-09-30T10:13:07;8.18;;;2.10;;
17844;SDS011;9047;53.486;10.218;2023-09-30T10:15:41;11.27;;;2.40;;
17844;SDS011;9047;53.486;10.218;2023-09-30T10:18:08;6.90;;;2.15;;
17844;SDS011;9047;53.486;10.218;2023-09-30T10:20:39;12.45;;;2.50;;
17844;SDS011;9047;53.486;10.218;2023-09-30T10:23:18;10.00;;;1.80;;
17844;SDS011;9047;53.486;10.218;2023-09-30T10:25:46;9.63;;;2.05;;
17844;SDS011;9047;53.486;10.218;2023-09-30T10:28:32;8.48;;;2.00;;
17844;SDS011;9047;53.486;10.218;2023-09-30T10:31:16;9.30;;;2.15;;
17844;SDS011;9047;53.486;10.218;2023-09-30T10:36:46;8.13;;;1.90;;
17844;SDS011;9047;53.486;10.218;2023-09-30T10:39:19;7.80;;;1.75;;
17844;SDS011;9047;53.486;10.218;2023-09-30T10:51:16;9.85;;;1.85;;
17844;SDS011;9047;53.486;10.218;2023-09-30T10:53:47;10.68;;;2.00;;
17844;SDS011;9047;53.486;10.218;2023-09-30T10:56:15;12.45;;;2.22;;
17844;SDS011;9047;53.486;10.218;2023-09-30T10:58:42;8.82;;;1.80;;
17844;SDS011;9047;53.486;10.218;2023-09-30T11:01:11;8.18;;;1.70;;
17844;SDS011;9047;53.486;10.218;2023-09-30T11:03:43;8.77;;;1.98;;
17844;SDS011;9047;53.486;10.218;2023-09-30T11:06:11;10.65;;;2.05;;
17844;SDS011;9047;53.486;10.218;2023-09-30T11:08:46;8.30;;;1.80;;
17844;SDS011;9047;53.486;10.218;2023-09-30T11:11:17;6.78;;;1.60;;
17844;SDS011;9047;53.486;10.218;2023-09-30T11:13:44;8.68;;;2.08;;
17844;SDS011;9047;53.486;10.218;2023-09-30T11:16:12;8.68;;;1.95;;
17844;SDS011;9047;53.486;10.218;2023-09-30T11:18:41;7.60;;;1.55;;
17844;SDS011;9047;53.486;10.218;2023-09-30T11:21:09;9.13;;;1.77;;
17844;SDS011;9047;53.486;10.218;2023-09-30T11:23:40;7.82;;;1.73;;
17844;SDS011;9047;53.486;10.218;2023-09-30T11:26:09;10.55;;;1.60;;
17844;SDS011;9047;53.486;10.218;2023-09-30T11:28:36;8.18;;;1.90;;
17844;SDS011;9047;53.486;10.218;2023-09-30T11:31:09;8.55;;;1.92;;
17844;SDS011;9047;53.486;10.218;2023-09-30T11:33:48;7.97;;;1.77;;
17844;SDS011;9047;53.486;10.218;2023-09-30T11:36:23;6.60;;;1.55;;
17844;SDS011;9047;53.486;10.218;2023-09-30T11:38:57;7.75;;;2.00;;
17844;SDS011;9047;53.486;10.218;2023-09-30T11:41:35;10.30;;;2.15;;
17844;SDS011;9047;53.486;10.218;2023-09-30T11:44:05;7.00;;;1.88;;
17844;SDS011;9047;53.486;10.218;2023-09-30T11:46:49;10.43;;;2.13;;
17844;SDS011;9047;53.486;10.218;2023-09-30T11:49:26;7.55;;;1.90;;
17844;SDS011;9047;53.486;10.218;2023-09-30T11:51:57;8.52;;;1.92;;
17844;SDS011;9047;53.486;10.218;2023-09-30T11:54:28;9.35;;;2.10;;
17844;SDS011;9047;53.486;10.218;2023-09-30T11:57:03;8.38;;;2.13;;
17844;SDS011;9047;53.486;10.218;2023-09-30T11:59:31;6.60;;;1.70;;
17844;SDS011;9047;53.486;10.218;2023-09-30T12:01:58;8.82;;;1.70;;
17844;SDS011;9047;53.486;10.218;2023-09-30T12:04:27;6.60;;;1.65;;
17844;SDS011;9047;53.486;10.218;2023-09-30T12:07:01;8.38;;;1.80;;
17844;SDS011;9047;53.486;10.218;2023-09-30T12:09:30;9.07;;;1.83;;
17844;SDS011;9047;53.486;10.218;2023-09-30T12:12:06;7.50;;;1.88;;
17844;SDS011;9047;53.486;10.218;2023-09-30T12:14:34;7.20;;;1.52;;
17844;SDS011;9047;53.486;10.218;2023-09-30T12:17:01;8.07;;;1.67;;
17844;SDS011;9047;53.486;10.218;2023-09-30T12:19:28;5.68;;;1.45;;
17844;SDS011;9047;53.486;10.218;2023-09-30T12:21:56;6.82;;;1.52;;
17844;SDS011;9047;53.486;10.218;2023-09-30T12:24:24;10.27;;;1.77;;
17844;SDS011;9047;53.486;10.218;2023-09-30T12:26:51;5.43;;;1.48;;
17844;SDS011;9047;53.486;10.218;2023-09-30T12:29:23;5.13;;;1.30;;
17844;SDS011;9047;53.486;10.218;2023-09-30T12:31:50;6.20;;;1.55;;
17844;SDS011;9047;53.486;10.218;2023-09-30T12:34:21;6.85;;;1.33;;
17844;SDS011;9047;53.486;10.218;2023-09-30T12:36:54;6.75;;;1.48;;
17844;SDS011;9047;53.486;10.218;2023-09-30T12:39:24;7.65;;;2.03;;
17844;SDS011;9047;53.486;10.218;2023-09-30T12:41:55;8.68;;;1.70;;
17844;SDS011;9047;53.486;10.218;2023-09-30T12:44:33;4.72;;;1.42;;
17844;SDS011;9047;53.486;10.218;2023-09-30T12:47:00;8.18;;;1.70;;
17844;SDS011;9047;53.486;10.218;2023-09-30T12:49:28;4.60;;;1.30;;
17844;SDS011;9047;53.486;10.218;2023-09-30T12:52:01;8.00;;;1.70;;
17844;SDS011;9047;53.486;10.218;2023-09-30T12:54:29;6.90;;;1.25;;
17844;SDS011;9047;53.486;10.218;2023-09-30T12:56:59;6.90;;;1.40;;
17844;SDS011;9047;53.486;10.218;2023-09-30T12:59:30;7.35;;;1.48;;
17844;SDS011;9047;53.486;10.218;2023-09-30T13:01:59;9.35;;;1.60;;
17844;SDS011;9047;53.486;10.218;2023-09-30T13:04:27;7.43;;;1.40;;
17844;SDS011;9047;53.486;10.218;2023-09-30T13:06:57;5.97;;;1.40;;
17844;SDS011;9047;53.486;10.218;2023-09-30T13:09:24;8.45;;;1.80;;
17844;SDS011;9047;53.486;10.218;2023-09-30T13:11:51;7.32;;;1.77;;
17844;SDS011;9047;53.486;10.218;2023-09-30T13:14:18;7.38;;;2.03;;
17844;SDS011;9047;53.486;10.218;2023-09-30T13:16:48;7.40;;;1.70;;
17844;SDS011;9047;53.486;10.218;2023-09-30T13:19:16;8.50;;;1.75;;
17844;SDS011;9047;53.486;10.218;2023-09-30T13:21:46;7.20;;;1.60;;
17844;SDS011;9047;53.486;10.218;2023-09-30T13:24:19;7.05;;;1.65;;
17844;SDS011;9047;53.486;10.218;2023-09-30T13:26:46;5.80;;;1.60;;
17844;SDS011;9047;53.486;10.218;2023-09-30T13:29:13;8.75;;;1.70;;
17844;SDS011;9047;53.486;10.218;2023-09-30T13:31:41;8.52;;;1.83;;
17844;SDS011;9047;53.486;10.218;2023-09-30T13:34:12;5.32;;;1.35;;
17844;SDS011;9047;53.486;10.218;2023-09-30T13:36:39;6.20;;;1.70;;
17844;SDS011;9047;53.486;10.218;2023-09-30T13:39:06;6.25;;;1.80;;
17844;SDS011;9047;53.486;10.218;2023-09-30T13:41:38;6.78;;;1.80;;
17844;SDS011;9047;53.486;10.218;2023-09-30T13:44:08;5.78;;;1.25;;
17844;SDS011;9047;53.486;10.218;2023-09-30T13:46:40;5.60;;;1.80;;
17844;SDS011;9047;53.486;10.218;2023-09-30T13:49:12;6.85;;;1.50;;
17844;SDS011;9047;53.486;10.218;2023-09-30T13:51:38;8.70;;;1.70;;
17844;SDS011;9047;53.486;10.218;2023-09-30T13:54:05;6.07;;;1.60;;
17844;SDS011;9047;53.486;10.218;2023-09-30T13:56:33;5.82;;;1.38;;
17844;SDS011;9047;53.486;10.218;2023-09-30T13:59:04;6.03;;;1.60;;
17844;SDS011;9047;53.486;10.218;2023-09-30T14:01:33;7.05;;;2.10;;
17844;SDS011;9047;53.486;10.218;2023-09-30T14:04:00;8.00;;;2.03;;
17844;SDS011;9047;53.486;10.218;2023-09-30T14:06:37;7.15;;;1.55;;
17844;SDS011;9047;53.486;10.218;2023-09-30T14:09:08;5.38;;;1.60;;
17844;SDS011;9047;53.486;10.218;2023-09-30T14:11:40;6.68;;;1.75;;
17844;SDS011;9047;53.486;10.218;2023-09-30T14:14:09;8.18;;;1.92;;
17844;SDS011;9047;53.486;10.218;2023-09-30T14:16:39;7.55;;;1.67;;
17844;SDS011;9047;53.486;10.218;2023-09-30T14:19:07;9.43;;;1.90;;
17844;SDS011;9047;53.486;10.218;2023-09-30T14:21:46;7.40;;;1.90;;
17844;SDS011;9047;53.486;10.218;2023-09-30T14:24:15;5.30;;;1.48;;
17844;SDS011;9047;53.486;10.218;2023-09-30T14:26:42;10.60;;;1.88;;
17844;SDS011;9047;53.486;10.218;2023-09-30T14:29:09;6.47;;;1.60;;
17844;SDS011;9047;53.486;10.218;2023-09-30T14:31:38;7.82;;;1.50;;
17844;SDS011;9047;53.486;10.218;2023-09-30T14:34:09;5.00;;;1.50;;
17844;SDS011;9047;53.486;10.218;2023-09-30T14:36:38;4.85;;;1.30;;
17844;SDS011;9047;53.486;10.218;2023-09-30T14:39:06;7.07;;;1.80;;
17844;SDS011;9047;53.486;10.218;2023-09-30T14:41:33;6.88;;;1.67;;
17844;SDS011;9047;53.486;10.218;2023-09-30T14:44:00;11.75;;;1.98;;
17844;SDS011;9047;53.486;10.218;2023-09-30T14:46:35;8.02;;;1.73;;
17844;SDS011;9047;53.486;10.218;2023-09-30T14:49:04;5.80;;;1.73;;
17844;SDS011;9047;53.486;10.218;2023-09-30T14:51:35;10.05;;;1.65;;
17844;SDS011;9047;53.486;10.218;2023-09-30T14:54:10;8.90;;;2.00;;
17844;SDS011;9047;53.486;10.218;2023-09-30T14:56:38;12.95;;;2.92;;
17844;SDS011;9047;53.486;10.218;2023-09-30T14:59:04;7.85;;;1.77;;
17844;SDS011;9047;53.486;10.218;2023-09-30T15:01:31;6.75;;;1.88;;
17844;SDS011;9047;53.486;10.218;2023-09-30T15:04:01;5.10;;;1.60;;
17844;SDS011;9047;53.486;10.218;2023-09-30T15:06:29;6.45;;;1.77;;
17844;SDS011;9047;53.486;10.218;2023-09-30T15:08:57;5.32;;;1.38;;